createdAt,value
2019-04-20T00:00:08.191Z,9.40
2019-04-20T00:01:05.379Z,9.20
2019-04-20T00:02:12.107Z,9.70
2019-04-20T00:03:05.685Z,9.30
2019-04-20T00:04:05.386Z,9.50
2019-04-20T00:05:05.311Z,8.90
2019-04-20T00:06:04.253Z,9.60
2019-04-20T00:07:04.257Z,9.70
2019-04-20T00:08:08.892Z,9.20
2019-04-20T00:09:12.005Z,10.10
2019-04-20T00:10:13.054Z,9.20
2019-04-20T00:11:11.779Z,9.60
2019-04-20T00:12:15.076Z,9.80
2019-04-20T00:13:16.637Z,10.20
2019-04-20T00:14:11.196Z,9.40
2019-04-20T00:15:05.179Z,9.30
2019-04-20T00:16:04.255Z,9.40
2019-04-20T00:17:05.184Z,9.10
2019-04-20T00:18:06.450Z,9.60
2019-04-20T00:19:05.925Z,9.70
2019-04-20T00:20:11.702Z,9.30
2019-04-20T00:21:10.977Z,9.00
2019-04-20T00:22:08.689Z,9.10
2019-04-20T00:23:05.904Z,9.40
2019-04-20T00:24:11.394Z,8.80
2019-04-20T00:25:10.474Z,8.80
2019-04-20T00:26:14.688Z,9.30
2019-04-20T00:27:25.738Z,8.70
2019-04-20T00:28:25.419Z,9.50
2019-04-20T00:29:21.374Z,9.00
2019-04-20T00:30:28.757Z,8.70
2019-04-20T00:31:22.241Z,8.90
2019-04-20T00:32:14.311Z,8.70
2019-04-20T00:33:21.591Z,9.20
2019-04-20T00:34:13.881Z,9.50
2019-04-20T00:35:06.204Z,9.10
2019-04-20T00:36:05.275Z,9.10
2019-04-20T00:37:05.161Z,8.70
2019-04-20T00:38:03.941Z,8.30
2019-04-20T00:39:07.575Z,8.70
2019-04-20T00:40:05.754Z,9.10
2019-04-20T00:41:07.537Z,8.60
2019-04-20T00:42:09.709Z,8.70
2019-04-20T00:43:04.852Z,8.40
2019-04-20T00:44:11.157Z,8.30
2019-04-20T00:45:14.123Z,8.80
2019-04-20T00:46:11.187Z,9.00
2019-04-20T00:47:15.797Z,8.90
2019-04-20T00:48:18.375Z,8.60
2019-04-20T00:49:21.632Z,9.00
2019-04-20T00:50:25.883Z,8.70
2019-04-20T00:51:23.921Z,8.40
2019-04-20T00:52:27.549Z,8.80
2019-04-20T00:53:15.013Z,8.50
2019-04-20T00:54:05.675Z,9.00
2019-04-20T00:55:04.231Z,8.50
2019-04-20T00:56:03.722Z,8.60
2019-04-20T00:57:13.255Z,8.60
2019-04-20T00:58:14.787Z,8.80
2019-04-20T00:59:16.777Z,8.40
2019-04-20T01:00:21.963Z,8.40
2019-04-20T01:01:28.649Z,8.30
2019-04-20T01:02:20.922Z,7.80
2019-04-20T01:03:20.949Z,8.70
2019-04-20T01:04:20.265Z,8.90
2019-04-20T01:05:23.365Z,8.20
2019-04-20T01:06:22.117Z,8.70
2019-04-20T01:07:17.612Z,8.00
2019-04-20T01:08:06.600Z,8.00
2019-04-20T01:09:03.588Z,8.30
2019-04-20T01:10:05.126Z,8.00
2019-04-20T01:11:04.264Z,8.10
2019-04-20T01:12:10.000Z,8.90
2019-04-20T01:13:09.917Z,8.70
2019-04-20T01:14:10.496Z,8.60
2019-04-20T01:15:08.007Z,8.10
2019-04-20T01:16:08.759Z,7.80
2019-04-20T01:17:11.679Z,8.10
2019-04-20T01:18:04.489Z,8.30
2019-04-20T01:19:03.463Z,8.40
2019-04-20T01:20:03.451Z,8.50
2019-04-20T01:21:07.712Z,8.40
2019-04-20T01:22:07.914Z,8.20
2019-04-20T01:23:10.010Z,8.40
2019-04-20T01:24:06.700Z,8.60
2019-04-20T01:25:09.850Z,7.90
2019-04-20T01:26:09.280Z,8.20
2019-04-20T01:27:08.098Z,7.70
2019-04-20T01:28:17.719Z,8.10
2019-04-20T01:29:17.319Z,8.10
2019-04-20T01:30:16.026Z,8.20
2019-04-20T01:31:15.812Z,8.00
2019-04-20T01:32:15.631Z,8.00
2019-04-20T01:33:16.322Z,8.10
2019-04-20T01:34:19.560Z,7.90
2019-04-20T01:35:22.874Z,7.70
2019-04-20T01:36:29.561Z,8.20
2019-04-20T01:37:18.030Z,8.10
2019-04-20T01:38:22.492Z,7.30
2019-04-20T01:39:13.809Z,8.10
2019-04-20T01:40:06.100Z,8.10
2019-04-20T01:41:03.402Z,8.10
2019-04-20T01:42:04.480Z,8.10
2019-04-20T01:43:03.772Z,8.00
2019-04-20T01:44:03.203Z,7.80
2019-04-20T01:45:12.779Z,8.20
2019-04-20T01:46:11.196Z,7.90
2019-04-20T01:47:06.531Z,8.30
2019-04-20T01:48:04.790Z,8.20
2019-04-20T01:49:07.917Z,7.60
2019-04-20T01:50:11.612Z,8.00
2019-04-20T01:51:13.386Z,8.20
2019-04-20T01:52:13.022Z,7.50
2019-04-20T01:53:13.546Z,8.10
2019-04-20T01:54:21.258Z,7.90
2019-04-20T01:55:23.036Z,7.90
2019-04-20T01:56:17.236Z,8.30
2019-04-20T01:57:12.826Z,7.50
2019-04-20T01:58:25.493Z,7.70
2019-04-20T01:59:19.730Z,7.50
2019-04-20T02:00:11.094Z,8.00
2019-04-20T02:01:09.847Z,7.70
2019-04-20T02:02:09.611Z,7.40
2019-04-20T02:03:05.549Z,7.80
2019-04-20T02:04:03.785Z,7.80
2019-04-20T02:05:11.339Z,7.70
2019-04-20T02:06:09.975Z,7.50
2019-04-20T02:07:06.683Z,7.60
2019-04-20T02:08:07.623Z,7.70
2019-04-20T02:09:10.179Z,7.80
2019-04-20T02:10:08.201Z,7.20
2019-04-20T02:11:06.186Z,7.50
2019-04-20T02:12:08.433Z,7.90
2019-04-20T02:13:06.566Z,7.90
2019-04-20T02:14:06.959Z,7.20
2019-04-20T02:15:06.315Z,7.20
2019-04-20T02:16:11.547Z,7.30
2019-04-20T02:17:14.824Z,7.90
2019-04-20T02:18:14.968Z,8.10
2019-04-20T02:19:19.631Z,7.60
2019-04-20T02:20:23.361Z,7.40
2019-04-20T02:21:20.837Z,7.10
2019-04-20T02:22:17.096Z,7.10
2019-04-20T02:23:17.357Z,7.70
2019-04-20T02:24:06.396Z,7.10
2019-04-20T02:25:03.913Z,7.70
2019-04-20T02:26:03.013Z,7.30
2019-04-20T02:27:04.022Z,7.40
2019-04-20T02:28:22.715Z,7.40
2019-04-20T02:29:33.588Z,7.10
2019-04-20T02:30:21.302Z,7.10
2019-04-20T02:31:52.142Z,7.40
2019-04-20T02:32:42.886Z,7.80
2019-04-20T02:34:40.023Z,7.60
2019-04-20T02:35:34.647Z,7.30
2019-04-20T02:36:55.640Z,7.20
2019-04-20T02:38:58.422Z,7.20
2019-04-20T02:41:44.883Z,7.30
2019-04-20T02:42:44.737Z,7.10
2019-04-20T02:43:52.695Z,7.10
2019-04-20T02:44:41.813Z,7.20
2019-04-20T02:46:41.564Z,7.40
2019-04-20T02:48:35.692Z,6.90
2019-04-20T02:49:44.814Z,6.80
2019-04-20T02:50:40.081Z,7.00
2019-04-20T02:51:42.263Z,6.80
2019-04-20T02:52:42.138Z,6.80
2019-04-20T02:53:46.954Z,7.10
2019-04-20T02:54:40.805Z,7.10
2019-04-20T02:56:09.038Z,6.80
2019-04-20T02:56:45.267Z,6.90
2019-04-20T02:57:50.982Z,6.90
2019-04-20T02:58:31.154Z,6.70
2019-04-20T02:59:53.801Z,6.60
2019-04-20T03:00:31.061Z,6.80
2019-04-20T03:01:20.187Z,7.00
2019-04-20T03:02:20.596Z,6.90
2019-04-20T03:03:16.342Z,6.80
2019-04-20T03:04:06.893Z,7.00
2019-04-20T03:05:18.888Z,6.60
2019-04-20T03:06:17.168Z,6.80
2019-04-20T03:07:17.859Z,6.70
2019-04-20T03:08:22.303Z,6.40
2019-04-20T03:09:27.225Z,7.20
2019-04-20T03:10:23.673Z,6.30
2019-04-20T03:11:29.498Z,6.50
2019-04-20T03:12:31.653Z,6.60
2019-04-20T03:13:27.406Z,6.70
2019-04-20T03:14:21.757Z,6.70
2019-04-20T03:15:29.467Z,6.40
2019-04-20T03:16:20.873Z,7.00
2019-04-20T03:17:27.182Z,6.70
2019-04-20T03:18:26.586Z,6.70
2019-04-20T03:19:22.198Z,6.30
2019-04-20T03:20:31.664Z,6.80
2019-04-20T03:21:27.248Z,6.30
2019-04-20T03:22:29.176Z,6.60
2019-04-20T03:23:31.051Z,6.50
2019-04-20T03:25:25.501Z,6.10
2019-04-20T03:26:24.941Z,6.20
2019-04-20T03:27:20.560Z,6.60
2019-04-20T03:28:25.883Z,6.50
2019-04-20T03:29:15.877Z,6.40
2019-04-20T03:31:03.979Z,6.40
2019-04-20T03:31:41.147Z,7.80
2019-04-20T03:32:56.111Z,7.10
2019-04-20T03:33:47.478Z,6.50
2019-04-20T03:35:28.583Z,6.30
2019-04-20T03:36:39.800Z,6.30
2019-04-20T03:38:21.758Z,7.50
2019-04-20T03:39:22.114Z,7.10
2019-04-20T03:40:19.104Z,7.30
2019-04-20T03:41:14.868Z,7.50
2019-04-20T03:42:05.189Z,7.00
2019-04-20T03:43:02.679Z,6.80
2019-04-20T03:44:09.875Z,7.00
2019-04-20T03:45:08.642Z,7.60
2019-04-20T03:46:07.825Z,8.00
2019-04-20T03:47:08.288Z,7.70
2019-04-20T03:48:13.949Z,7.80
2019-04-20T03:49:20.302Z,7.00
2019-04-20T03:50:24.665Z,7.70
2019-04-20T03:51:30.343Z,7.60
2019-04-20T03:52:23.328Z,7.60
2019-04-20T03:53:19.286Z,7.80
2019-04-20T03:55:23.960Z,7.30
2019-04-20T03:56:28.086Z,7.90
2019-04-20T03:57:32.492Z,7.60
2019-04-20T03:59:17.395Z,7.60
2019-04-20T04:00:21.930Z,7.00
2019-04-20T04:01:27.294Z,7.20
2019-04-20T04:02:29.856Z,7.40
2019-04-20T04:03:29.020Z,7.50
2019-04-20T04:04:27.150Z,7.20
2019-04-20T04:05:17.656Z,6.70
2019-04-20T04:06:16.349Z,6.90
2019-04-20T04:07:13.031Z,6.90
2019-04-20T04:08:14.011Z,6.80
2019-04-20T04:09:18.845Z,7.10
2019-04-20T04:10:15.999Z,7.20
2019-04-20T04:11:19.996Z,7.10
2019-04-20T04:12:12.182Z,6.90
2019-04-20T04:13:03.053Z,6.90
2019-04-20T04:14:02.917Z,7.10
2019-04-20T04:15:02.277Z,6.90
2019-04-20T04:16:06.910Z,6.90
2019-04-20T04:17:03.945Z,6.60
2019-04-20T04:18:07.366Z,7.00
2019-04-20T04:19:12.723Z,6.80
2019-04-20T04:20:09.793Z,7.30
2019-04-20T04:21:08.484Z,6.80
2019-04-20T04:22:17.443Z,6.80
2019-04-20T04:23:19.459Z,6.40
2019-04-20T04:24:17.057Z,6.50
2019-04-20T04:25:19.529Z,6.70
2019-04-20T04:26:21.980Z,6.20
2019-04-20T04:27:22.515Z,6.50
2019-04-20T04:28:18.566Z,6.10
2019-04-20T04:29:27.104Z,6.30
2019-04-20T04:30:20.597Z,6.60
2019-04-20T04:31:27.584Z,6.30
2019-04-20T04:32:29.031Z,6.40
2019-04-20T04:34:18.762Z,6.30
2019-04-20T04:35:16.584Z,6.10
2019-04-20T04:36:17.837Z,6.10
2019-04-20T04:37:20.697Z,6.20
2019-04-20T04:38:23.626Z,6.40
2019-04-20T04:39:25.224Z,6.30
2019-04-20T04:40:37.531Z,5.70
2019-04-20T04:41:25.538Z,6.00
2019-04-20T04:42:22.243Z,6.00
2019-04-20T04:43:22.211Z,6.00
2019-04-20T04:44:14.752Z,5.80
2019-04-20T04:45:07.726Z,5.90
2019-04-20T04:46:02.183Z,6.00
2019-04-20T04:47:05.256Z,5.70
2019-04-20T04:48:02.151Z,5.30
2019-04-20T04:49:10.570Z,5.80
2019-04-20T04:50:11.043Z,5.70
2019-04-20T04:51:10.417Z,5.40
2019-04-20T04:52:08.144Z,5.80
2019-04-20T04:53:09.381Z,5.30
2019-04-20T04:54:13.858Z,5.60
2019-04-20T04:55:10.865Z,5.70
2019-04-20T04:56:07.182Z,5.70
2019-04-20T04:57:03.377Z,5.50
2019-04-20T04:58:02.329Z,5.50
2019-04-20T04:59:02.261Z,5.70
2019-04-20T05:00:01.595Z,5.40
2019-04-20T05:01:07.707Z,5.70
2019-04-20T05:02:03.320Z,5.70
2019-04-20T05:03:14.565Z,5.40
2019-04-20T05:04:23.330Z,5.00
2019-04-20T05:05:25.212Z,5.30
2019-04-20T05:06:18.822Z,5.00
2019-04-20T05:07:17.574Z,5.10
2019-04-20T05:08:10.215Z,5.30
2019-04-20T05:09:06.061Z,5.60
2019-04-20T05:10:01.911Z,5.30
2019-04-20T05:11:00.917Z,5.40
2019-04-20T05:12:08.564Z,5.10
2019-04-20T05:13:02.956Z,5.00
2019-04-20T05:14:06.739Z,5.30
2019-04-20T05:15:10.077Z,5.10
2019-04-20T05:16:15.847Z,5.40
2019-04-20T05:17:20.700Z,5.30
2019-04-20T05:18:28.526Z,5.00
2019-04-20T05:19:26.560Z,5.40
2019-04-20T05:20:18.105Z,4.90
2019-04-20T05:21:21.624Z,5.20
2019-04-20T05:22:29.564Z,5.60
2019-04-20T05:23:16.354Z,4.90
2019-04-20T05:24:17.950Z,5.00
2019-04-20T05:25:10.654Z,5.00
2019-04-20T05:26:20.343Z,5.00
2019-04-20T05:27:27.478Z,5.00
2019-04-20T05:28:16.747Z,4.80
2019-04-20T05:29:10.751Z,4.80
2019-04-20T05:30:01.697Z,4.90
2019-04-20T05:31:04.520Z,4.70
2019-04-20T05:32:07.914Z,5.10
2019-04-20T05:33:07.775Z,5.00
2019-04-20T05:34:29.107Z,5.10
2019-04-20T05:35:24.202Z,4.90
2019-04-20T05:36:23.133Z,5.20
2019-04-20T05:37:31.248Z,4.50
2019-04-20T05:38:22.995Z,4.90
2019-04-20T05:39:26.852Z,4.80
2019-04-20T05:40:22.227Z,4.90
2019-04-20T05:41:20.097Z,4.70
2019-04-20T05:42:23.434Z,4.70
2019-04-20T05:43:24.616Z,5.20
2019-04-20T05:44:16.876Z,4.90
2019-04-20T05:46:21.187Z,4.60
2019-04-20T05:47:24.030Z,4.90
2019-04-20T05:48:16.457Z,4.70
2019-04-20T05:49:23.410Z,5.20
2019-04-20T05:50:23.131Z,5.00
2019-04-20T05:51:25.651Z,4.80
2019-04-20T05:52:35.097Z,4.90
2019-04-20T05:53:27.338Z,4.90
2019-04-20T05:54:23.363Z,4.60
2019-04-20T05:55:22.346Z,4.80
2019-04-20T05:56:26.719Z,5.00
2019-04-20T05:57:25.216Z,5.10
2019-04-20T05:58:24.625Z,5.20
2019-04-20T05:59:19.169Z,4.70
2019-04-20T06:00:27.923Z,4.80
2019-04-20T06:01:25.911Z,4.90
2019-04-20T06:02:23.350Z,5.00
2019-04-20T06:03:22.842Z,5.00
2019-04-20T06:04:28.680Z,4.40
2019-04-20T06:05:22.391Z,4.80
2019-04-20T06:06:21.784Z,5.00
2019-04-20T06:07:25.279Z,5.40
2019-04-20T06:08:32.975Z,4.60
2019-04-20T06:09:23.635Z,4.90
2019-04-20T06:10:26.284Z,4.80
2019-04-20T06:11:24.631Z,4.60
2019-04-20T06:12:19.987Z,4.90
2019-04-20T06:13:17.322Z,5.00
2019-04-20T06:14:10.405Z,5.00
2019-04-20T06:15:15.407Z,4.70
2019-04-20T06:16:18.173Z,4.90
2019-04-20T06:17:20.965Z,5.00
2019-04-20T06:18:17.790Z,5.00
2019-04-20T06:19:36.489Z,4.80
2019-04-20T06:20:23.440Z,4.50
2019-04-20T06:21:35.476Z,4.60
2019-04-20T06:22:27.202Z,5.10
2019-04-20T06:23:24.537Z,4.80
2019-04-20T06:24:26.542Z,4.90
2019-04-20T06:25:39.307Z,5.00
2019-04-20T06:27:21.510Z,5.10
2019-04-20T06:28:17.530Z,4.70
2019-04-20T06:29:18.300Z,4.80
2019-04-20T06:30:21.687Z,5.00
2019-04-20T06:31:26.505Z,4.60
2019-04-20T06:32:29.591Z,4.90
2019-04-20T06:33:37.389Z,4.90
2019-04-20T06:34:30.263Z,5.00
2019-04-20T06:35:37.136Z,4.60
2019-04-20T06:36:27.497Z,4.50
2019-04-20T06:37:18.461Z,4.70
2019-04-20T06:38:46.858Z,4.90
2019-04-20T06:40:42.842Z,4.90
2019-04-20T06:41:36.066Z,4.90
2019-04-20T06:42:23.602Z,4.90
2019-04-20T06:43:25.334Z,4.90
2019-04-20T06:44:23.163Z,4.70
2019-04-20T06:45:31.198Z,4.50
2019-04-20T06:46:22.103Z,4.70
2019-04-20T06:47:39.678Z,4.50
2019-04-20T06:48:30.912Z,4.70
2019-04-20T06:50:18.503Z,4.50
2019-04-20T06:51:24.895Z,4.80
2019-04-20T06:52:32.790Z,4.70
2019-04-20T06:53:31.068Z,4.70
2019-04-20T06:54:12.343Z,4.50
2019-04-20T06:55:19.785Z,4.50
2019-04-20T06:56:27.675Z,4.20
2019-04-20T06:57:29.152Z,5.00
2019-04-20T06:58:34.682Z,4.30
2019-04-20T06:59:27.566Z,4.60
2019-04-20T07:00:18.256Z,4.70
2019-04-20T07:01:17.144Z,4.60
2019-04-20T07:03:36.171Z,4.40
2019-04-20T07:04:38.737Z,4.60
2019-04-20T07:05:22.428Z,4.70
2019-04-20T07:06:35.648Z,4.20
2019-04-20T07:07:36.194Z,4.20
2019-04-20T07:08:38.367Z,4.60
2019-04-20T07:09:33.190Z,4.60
2019-04-20T07:10:25.295Z,4.80
2019-04-20T07:11:24.092Z,4.50
2019-04-20T07:12:16.807Z,4.30
2019-04-20T07:13:14.871Z,4.30
2019-04-20T07:14:06.610Z,4.30
2019-04-20T07:15:19.861Z,4.70
2019-04-20T07:16:23.917Z,4.60
2019-04-20T07:17:32.980Z,4.70
2019-04-20T07:18:26.521Z,4.80
2019-04-20T07:19:18.868Z,4.90
2019-04-20T07:20:19.582Z,4.60
2019-04-20T07:21:41.763Z,4.70
2019-04-20T07:22:30.930Z,4.60
2019-04-20T07:24:26.281Z,4.70
2019-04-20T07:25:29.322Z,4.70
2019-04-20T07:26:22.343Z,4.30
2019-04-20T07:27:19.551Z,4.70
2019-04-20T07:28:29.196Z,4.70
2019-04-20T07:29:26.002Z,4.40
2019-04-20T07:30:19.658Z,4.60
2019-04-20T07:31:21.108Z,5.20
2019-04-20T07:32:16.326Z,4.60
2019-04-20T07:33:25.624Z,4.40
2019-04-20T07:34:21.474Z,4.70
2019-04-20T07:35:21.669Z,4.60
2019-04-20T07:36:30.691Z,4.50
2019-04-20T07:38:32.992Z,4.50
2019-04-20T07:39:26.592Z,4.60
2019-04-20T07:40:22.907Z,4.40
2019-04-20T07:41:26.201Z,4.80
2019-04-20T07:42:24.184Z,4.50
2019-04-20T07:43:21.478Z,4.50
2019-04-20T07:44:27.909Z,4.50
2019-04-20T07:45:40.215Z,4.80
2019-04-20T07:46:35.924Z,5.00
2019-04-20T07:47:32.870Z,4.30
2019-04-20T07:48:21.308Z,4.30
2019-04-20T07:49:22.429Z,4.70
2019-04-20T07:50:13.540Z,4.60
2019-04-20T07:51:09.343Z,4.50
2019-04-20T07:52:00.098Z,4.60
2019-04-20T07:53:18.553Z,4.30
2019-04-20T07:54:34.038Z,4.60
2019-04-20T07:56:25.656Z,4.60
2019-04-20T07:57:21.007Z,4.60
2019-04-20T07:58:11.120Z,4.90
2019-04-20T07:59:14.274Z,4.60
2019-04-20T08:00:26.302Z,4.40
2019-04-20T08:01:32.786Z,4.50
2019-04-20T08:02:25.220Z,4.60
2019-04-20T08:03:22.082Z,4.40
2019-04-20T08:04:17.461Z,4.60
2019-04-20T08:05:15.198Z,4.40
2019-04-20T08:06:07.531Z,4.90
2019-04-20T08:07:04.298Z,4.30
2019-04-20T08:08:17.183Z,4.50
2019-04-20T08:09:17.166Z,4.60
2019-04-20T08:10:05.824Z,4.50
2019-04-20T08:11:13.981Z,4.20
2019-04-20T08:12:26.837Z,4.70
2019-04-20T08:13:30.182Z,4.20
2019-04-20T08:14:27.198Z,4.80
2019-04-20T08:15:30.071Z,4.70
2019-04-20T08:16:27.661Z,4.60
2019-04-20T08:17:47.079Z,4.50
2019-04-20T08:18:32.228Z,4.60
2019-04-20T08:19:17.630Z,4.70
2019-04-20T08:20:23.328Z,4.30
2019-04-20T08:21:22.851Z,4.40
2019-04-20T08:22:21.888Z,4.10
2019-04-20T08:23:23.206Z,4.40
2019-04-20T08:24:17.581Z,4.40
2019-04-20T08:25:14.263Z,4.50
2019-04-20T08:26:08.873Z,4.60
2019-04-20T08:27:04.767Z,4.30
2019-04-20T08:27:59.698Z,4.20
2019-04-20T08:29:04.884Z,4.60
2019-04-20T08:30:21.412Z,4.40
2019-04-20T08:31:15.312Z,4.20
2019-04-20T08:32:17.822Z,4.10
2019-04-20T08:33:19.478Z,4.40
2019-04-20T08:34:27.649Z,4.60
2019-04-20T08:35:30.061Z,4.50
2019-04-20T08:36:25.764Z,4.10
2019-04-20T08:37:18.554Z,4.20
2019-04-20T08:38:49.836Z,4.40
2019-04-20T08:39:30.498Z,4.20
2019-04-20T08:40:19.489Z,4.20
2019-04-20T08:41:18.933Z,4.40
2019-04-20T08:42:16.321Z,4.30
2019-04-20T08:43:36.885Z,4.60
2019-04-20T08:44:41.360Z,4.30
2019-04-20T08:45:24.108Z,4.00
2019-04-20T08:46:21.992Z,4.30
2019-04-20T08:47:30.531Z,4.40
2019-04-20T08:48:25.008Z,4.50
2019-04-20T08:49:26.304Z,4.10
2019-04-20T08:51:22.793Z,3.90
2019-04-20T08:52:36.717Z,4.30
2019-04-20T08:54:16.456Z,3.70
2019-04-20T08:55:14.942Z,4.20
2019-04-20T08:56:14.238Z,4.30
2019-04-20T08:57:02.085Z,4.40
2019-04-20T08:57:59.652Z,4.60
2019-04-20T08:58:59.571Z,4.40
2019-04-20T09:00:01.531Z,4.40
2019-04-20T09:01:03.352Z,4.00
2019-04-20T09:02:07.186Z,4.00
2019-04-20T09:03:09.429Z,4.40
2019-04-20T09:04:06.710Z,4.30
2019-04-20T09:05:04.902Z,3.80
2019-04-20T09:06:06.729Z,4.10
2019-04-20T09:07:08.371Z,4.20
2019-04-20T09:08:09.296Z,4.10
2019-04-20T09:09:20.916Z,4.10
2019-04-20T09:10:24.362Z,3.70
2019-04-20T09:11:15.397Z,4.10
2019-04-20T09:12:16.360Z,4.10
2019-04-20T09:13:12.089Z,4.10
2019-04-20T09:14:01.865Z,4.00
2019-04-20T09:14:59.486Z,3.50
2019-04-20T09:15:58.166Z,4.10
2019-04-20T09:17:03.754Z,4.10
2019-04-20T09:18:03.809Z,4.40
2019-04-20T09:19:04.648Z,4.20
2019-04-20T09:20:09.578Z,4.00
2019-04-20T09:21:07.697Z,4.20
2019-04-20T09:22:12.182Z,4.00
2019-04-20T09:23:16.636Z,3.80
2019-04-20T09:24:22.870Z,3.90
2019-04-20T09:25:35.264Z,4.30
2019-04-20T09:26:15.956Z,4.10
2019-04-20T09:27:12.831Z,4.00
2019-04-20T09:28:08.428Z,4.00
2019-04-20T09:29:12.779Z,4.00
2019-04-20T09:30:13.717Z,4.10
2019-04-20T09:31:15.253Z,4.20
2019-04-20T09:32:20.904Z,3.90
2019-04-20T09:33:14.514Z,4.00
2019-04-20T09:34:15.819Z,4.00
2019-04-20T09:35:19.331Z,3.80
2019-04-20T09:36:14.295Z,3.80
2019-04-20T09:37:16.761Z,4.00
2019-04-20T09:38:15.571Z,4.10
2019-04-20T09:39:11.463Z,3.80
2019-04-20T09:40:16.036Z,4.00
2019-04-20T09:41:24.549Z,3.80
2019-04-20T09:42:01.176Z,3.70
2019-04-20T09:42:57.887Z,4.10
2019-04-20T09:43:58.309Z,3.90
2019-04-20T09:45:02.487Z,3.80
2019-04-20T09:46:03.670Z,4.10
2019-04-20T09:47:01.335Z,3.70
2019-04-20T09:47:58.779Z,3.80
2019-04-20T09:49:02.734Z,3.70
2019-04-20T09:50:13.432Z,3.60
2019-04-20T09:51:20.322Z,4.00
2019-04-20T09:52:14.507Z,3.60
2019-04-20T09:53:14.177Z,3.80
2019-04-20T09:54:12.518Z,3.70
2019-04-20T09:55:10.517Z,3.80
2019-04-20T09:56:18.250Z,4.00
2019-04-20T09:57:19.147Z,3.80
2019-04-20T09:58:12.541Z,3.80
2019-04-20T09:59:16.710Z,3.60
2019-04-20T10:00:15.504Z,3.60
2019-04-20T10:01:13.588Z,3.80
2019-04-20T10:02:06.619Z,3.60
2019-04-20T10:02:58.655Z,3.50
2019-04-20T10:03:57.630Z,3.60
2019-04-20T10:04:57.773Z,3.50
2019-04-20T10:05:57.606Z,3.70
2019-04-20T10:07:02.233Z,3.80
2019-04-20T10:08:02.828Z,3.70
2019-04-20T10:09:03.067Z,3.50
2019-04-20T10:09:59.814Z,3.50
2019-04-20T10:10:57.553Z,3.70
2019-04-20T10:11:57.630Z,3.60
2019-04-20T10:12:58.369Z,3.20
2019-04-20T10:13:58.570Z,3.40
2019-04-20T10:15:06.176Z,3.80
2019-04-20T10:15:59.720Z,3.40
2019-04-20T10:16:58.004Z,3.80
2019-04-20T10:17:57.477Z,4.00
2019-04-20T10:18:58.765Z,3.80
2019-04-20T10:19:57.795Z,3.60
2019-04-20T10:20:57.906Z,3.60
2019-04-20T10:21:57.439Z,3.60
2019-04-20T10:22:58.437Z,3.60
2019-04-20T10:23:58.806Z,3.50
2019-04-20T10:24:57.409Z,3.90
2019-04-20T10:25:58.603Z,3.60
2019-04-20T10:26:58.654Z,3.40
2019-04-20T10:27:57.814Z,3.80
2019-04-20T10:28:57.514Z,3.30
2019-04-20T10:29:58.474Z,3.40
2019-04-20T10:30:58.801Z,3.70
2019-04-20T10:32:00.702Z,3.80
2019-04-20T10:32:59.519Z,3.50
2019-04-20T10:33:57.650Z,3.50
2019-04-20T10:34:57.296Z,3.50
2019-04-20T10:35:57.502Z,3.20
2019-04-20T10:36:57.591Z,3.50
2019-04-20T10:37:57.683Z,3.70
2019-04-20T10:38:58.218Z,3.60
2019-04-20T10:39:58.432Z,3.20
2019-04-20T10:41:08.271Z,3.10
2019-04-20T10:42:02.138Z,3.50
2019-04-20T10:43:01.044Z,3.40
2019-04-20T10:43:57.210Z,3.30
2019-04-20T10:44:59.422Z,3.40
2019-04-20T10:45:57.262Z,3.30
2019-04-20T10:46:57.160Z,3.30
2019-04-20T10:47:57.149Z,3.50
2019-04-20T10:49:01.160Z,3.50
2019-04-20T10:49:58.880Z,3.20
2019-04-20T10:50:57.110Z,3.30
2019-04-20T10:51:57.821Z,3.10
2019-04-20T10:52:57.088Z,3.30
2019-04-20T10:53:58.312Z,3.10
2019-04-20T10:54:58.534Z,3.20
2019-04-20T10:55:57.780Z,3.60
2019-04-20T10:56:57.364Z,3.50
2019-04-20T10:57:57.680Z,3.20
2019-04-20T10:58:57.960Z,3.20
2019-04-20T10:59:57.544Z,3.10
2019-04-20T11:00:57.699Z,3.30
2019-04-20T11:01:58.121Z,3.10
2019-04-20T11:02:57.467Z,3.30
2019-04-20T11:03:56.968Z,3.40
2019-04-20T11:04:57.068Z,3.00
2019-04-20T11:05:56.950Z,3.10
2019-04-20T11:06:56.972Z,3.60
2019-04-20T11:07:56.923Z,3.30
2019-04-20T11:08:58.423Z,3.40
2019-04-20T11:10:10.657Z,3.40
2019-04-20T11:11:09.300Z,3.50
2019-04-20T11:11:58.722Z,3.20
2019-04-20T11:12:57.105Z,3.20
2019-04-20T11:14:01.957Z,3.20
2019-04-20T11:14:58.666Z,3.20
2019-04-20T11:15:56.834Z,3.00
2019-04-20T11:16:58.322Z,3.10
2019-04-20T11:17:57.528Z,3.40
2019-04-20T11:18:57.737Z,3.10
2019-04-20T11:19:57.197Z,3.30
2019-04-20T11:20:57.423Z,3.40
2019-04-20T11:21:56.777Z,3.30
2019-04-20T11:22:58.076Z,3.00
2019-04-20T11:23:56.746Z,2.90
2019-04-20T11:24:56.760Z,3.00
2019-04-20T11:25:57.975Z,3.20
2019-04-20T11:26:56.715Z,3.20
2019-04-20T11:27:56.703Z,3.30
2019-04-20T11:28:57.901Z,3.00
2019-04-20T11:29:58.132Z,2.80
2019-04-20T11:30:56.673Z,3.40
2019-04-20T11:31:58.164Z,2.80
2019-04-20T11:32:57.995Z,3.30
2019-04-20T11:33:56.640Z,3.00
2019-04-20T11:34:56.779Z,3.00
2019-04-20T11:35:57.102Z,3.00
2019-04-20T11:36:57.226Z,3.30
2019-04-20T11:37:57.470Z,3.10
2019-04-20T11:38:56.754Z,3.10
2019-04-20T11:39:57.042Z,2.90
2019-04-20T11:41:07.364Z,2.80
2019-04-20T11:41:57.549Z,2.80
2019-04-20T11:42:57.510Z,3.10
2019-04-20T11:43:57.806Z,3.10
2019-04-20T11:44:57.117Z,2.70
2019-04-20T11:45:56.591Z,3.20
2019-04-20T11:46:56.753Z,2.90
2019-04-20T11:47:57.713Z,3.00
2019-04-20T11:48:57.269Z,3.00
2019-04-20T11:49:57.600Z,2.90
2019-04-20T11:50:57.665Z,3.10
2019-04-20T11:51:57.312Z,2.90
2019-04-20T11:52:57.280Z,2.90
2019-04-20T11:53:56.546Z,3.10
2019-04-20T11:54:56.411Z,2.80
2019-04-20T11:55:56.432Z,3.00
2019-04-20T11:56:57.377Z,2.80
2019-04-20T11:57:56.379Z,2.90
2019-04-20T11:58:56.789Z,2.70
2019-04-20T11:59:57.159Z,2.60
2019-04-20T12:01:04.246Z,2.80
2019-04-20T12:02:03.588Z,2.80
2019-04-20T12:03:00.345Z,2.60
2019-04-20T12:04:04.079Z,2.90
2019-04-20T12:05:11.586Z,2.70
2019-04-20T12:06:01.068Z,3.10
2019-04-20T12:06:57.279Z,2.80
2019-04-20T12:07:56.290Z,2.80
2019-04-20T12:08:57.012Z,3.00
2019-04-20T12:09:58.505Z,2.80
2019-04-20T12:11:00.388Z,2.80
2019-04-20T12:12:10.215Z,2.90
2019-04-20T12:12:57.556Z,2.70
2019-04-20T12:13:56.511Z,2.80
2019-04-20T12:14:56.763Z,2.80
2019-04-20T12:15:56.192Z,2.80
2019-04-20T12:16:57.341Z,2.90
2019-04-20T12:17:56.165Z,2.70
2019-04-20T12:18:56.777Z,2.80
2019-04-20T12:19:56.157Z,2.80
2019-04-20T12:20:56.744Z,3.20
2019-04-20T12:21:56.134Z,2.70
2019-04-20T12:22:56.108Z,3.00
2019-04-20T12:23:56.289Z,2.80
2019-04-20T12:24:56.277Z,2.90
2019-04-20T12:25:56.455Z,3.00
2019-04-20T12:26:56.519Z,2.60
2019-04-20T12:27:59.927Z,2.60
2019-04-20T12:28:57.998Z,2.40
2019-04-20T12:29:57.470Z,2.70
2019-04-20T12:31:04.015Z,2.60
2019-04-20T12:31:59.129Z,2.50
2019-04-20T12:33:00.011Z,3.00
2019-04-20T12:33:58.091Z,2.90
2019-04-20T12:34:56.127Z,2.70
2019-04-20T12:35:56.304Z,2.70
2019-04-20T12:36:58.240Z,2.70
2019-04-20T12:37:56.871Z,2.80
2019-04-20T12:38:57.189Z,2.70
2019-04-20T12:39:57.372Z,3.00
2019-04-20T12:40:55.909Z,2.60
2019-04-20T12:42:00.026Z,2.60
2019-04-20T12:42:57.225Z,2.70
2019-04-20T12:43:56.146Z,2.70
2019-04-20T12:44:55.870Z,2.90
2019-04-20T12:45:55.959Z,2.40
2019-04-20T12:46:57.056Z,2.70
2019-04-20T12:47:55.830Z,2.70
2019-04-20T12:48:55.822Z,3.00
2019-04-20T12:49:55.902Z,2.70
2019-04-20T12:50:55.798Z,2.80
2019-04-20T12:52:00.249Z,2.50
2019-04-20T12:52:56.789Z,2.70
2019-04-20T12:53:56.341Z,2.70
2019-04-20T12:54:58.308Z,2.50
2019-04-20T12:55:56.807Z,2.50
2019-04-20T12:56:56.333Z,2.70
2019-04-20T12:57:56.700Z,2.60
2019-04-20T12:58:55.929Z,2.40
2019-04-20T12:59:55.713Z,2.70
2019-04-20T13:00:56.319Z,2.60
2019-04-20T13:01:55.704Z,2.90
2019-04-20T13:02:55.756Z,2.60
2019-04-20T13:03:55.659Z,2.70
2019-04-20T13:04:55.641Z,2.40
2019-04-20T13:05:56.109Z,2.50
2019-04-20T13:06:55.664Z,2.90
2019-04-20T13:07:59.021Z,2.50
2019-04-20T13:08:58.897Z,2.60
2019-04-20T13:09:56.915Z,2.50
2019-04-20T13:10:55.579Z,2.40
2019-04-20T13:12:02.232Z,2.80
2019-04-20T13:12:56.565Z,2.70
2019-04-20T13:13:56.598Z,2.70
2019-04-20T13:14:56.122Z,2.50
2019-04-20T13:15:56.305Z,2.40
2019-04-20T13:16:56.814Z,2.30
2019-04-20T13:17:56.911Z,2.50
2019-04-20T13:18:55.492Z,2.40
2019-04-20T13:19:55.481Z,2.70
2019-04-20T13:20:58.009Z,2.50
2019-04-20T13:21:56.796Z,2.50
2019-04-20T13:22:55.457Z,2.50
2019-04-20T13:23:56.504Z,2.30
2019-04-20T13:24:56.925Z,2.20
2019-04-20T13:25:55.412Z,2.40
2019-04-20T13:26:55.400Z,2.40
2019-04-20T13:27:56.836Z,2.80
2019-04-20T13:28:55.371Z,2.70
2019-04-20T13:29:55.930Z,2.30
2019-04-20T13:30:55.691Z,2.50
2019-04-20T13:31:56.768Z,2.50
2019-04-20T13:32:57.077Z,2.40
2019-04-20T13:33:55.318Z,2.20
2019-04-20T13:34:56.241Z,2.30
2019-04-20T13:35:56.376Z,2.40
2019-04-20T13:36:55.946Z,2.60
2019-04-20T13:37:56.151Z,2.30
2019-04-20T13:38:56.398Z,2.30
2019-04-20T13:39:56.575Z,2.50